createdAt,value
2023-12-30T00:00:18.433Z,9.38
2023-12-30T00:02:49.304Z,10.93
2023-12-30T00:05:19.235Z,12.35
2023-12-30T00:07:47.877Z,11.02
2023-12-30T00:10:16.671Z,10.00
2023-12-30T00:12:45.041Z,11.07
2023-12-30T00:15:13.649Z,9.68
2023-12-30T00:17:42.023Z,10.85
2023-12-30T00:20:11.220Z,10.10
2023-12-30T00:22:41.027Z,11.27
2023-12-30T00:25:11.587Z,9.35
2023-12-30T00:27:41.875Z,11.27
2023-12-30T00:30:14.781Z,10.52
2023-12-30T00:32:43.416Z,10.88
2023-12-30T00:35:12.278Z,9.85
2023-12-30T00:37:41.989Z,10.88
2023-12-30T00:40:12.469Z,10.43
2023-12-30T00:42:40.911Z,10.68
2023-12-30T00:45:10.489Z,10.63
2023-12-30T00:47:39.302Z,9.93
2023-12-30T00:50:08.497Z,9.68
2023-12-30T00:52:36.839Z,10.50
2023-12-30T00:55:07.418Z,10.23
2023-12-30T00:57:36.193Z,11.27
2023-12-30T01:00:05.979Z,10.43
2023-12-30T01:02:34.277Z,9.95
2023-12-30T01:05:02.820Z,10.07
2023-12-30T01:07:31.394Z,10.23
2023-12-30T01:09:59.798Z,11.07
2023-12-30T01:12:29.495Z,10.30
2023-12-30T01:14:57.909Z,10.15
2023-12-30T01:17:26.362Z,10.65
2023-12-30T01:19:54.778Z,10.52
2023-12-30T01:22:23.221Z,10.95
2023-12-30T01:24:51.606Z,10.85
2023-12-30T01:27:20.010Z,10.68
2023-12-30T01:29:49.711Z,9.88
2023-12-30T01:32:18.122Z,11.40
2023-12-30T01:34:46.476Z,9.05
2023-12-30T01:37:14.865Z,9.50
2023-12-30T01:39:43.215Z,9.23
2023-12-30T01:42:11.794Z,8.43
2023-12-30T01:44:40.303Z,8.30
2023-12-30T01:47:10.300Z,8.55
2023-12-30T01:49:38.924Z,7.75
2023-12-30T01:52:08.514Z,7.85
2023-12-30T01:54:37.214Z,6.35
2023-12-30T01:57:06.734Z,6.35
2023-12-30T01:59:37.568Z,4.00
2023-12-30T02:02:06.593Z,3.65
2023-12-30T02:04:36.658Z,4.95
2023-12-30T02:07:05.522Z,5.20
2023-12-30T02:09:33.946Z,4.35
2023-12-30T02:12:02.541Z,4.05
2023-12-30T02:14:32.706Z,4.68
2023-12-30T02:17:01.672Z,3.63
2023-12-30T02:19:30.044Z,3.65
2023-12-30T02:21:59.771Z,2.25
2023-12-30T02:24:29.520Z,2.78
2023-12-30T02:26:58.328Z,1.80
2023-12-30T02:29:26.648Z,2.25
2023-12-30T02:31:55.024Z,1.77
2023-12-30T02:34:23.499Z,1.67
2023-12-30T02:36:52.024Z,1.63
2023-12-30T02:39:20.417Z,1.33
2023-12-30T02:41:50.106Z,1.13
2023-12-30T02:44:20.353Z,1.02
2023-12-30T02:46:48.804Z,1.50
2023-12-30T02:49:17.318Z,1.10
2023-12-30T02:51:45.795Z,2.20
2023-12-30T02:54:14.140Z,1.13
2023-12-30T02:56:42.521Z,1.17
2023-12-30T02:59:12.368Z,1.02
2023-12-30T03:01:40.873Z,0.95
2023-12-30T03:04:09.424Z,0.80
2023-12-30T03:06:38.458Z,1.88
2023-12-30T03:09:06.817Z,0.60
2023-12-30T03:11:35.203Z,0.80
2023-12-30T03:14:03.750Z,0.80
2023-12-30T03:16:34.707Z,0.80
2023-12-30T03:19:03.511Z,0.70
2023-12-30T03:21:31.968Z,0.80
2023-12-30T03:24:00.273Z,0.70
2023-12-30T03:26:28.618Z,0.82
2023-12-30T03:28:56.960Z,0.60
2023-12-30T03:31:26.975Z,0.95
2023-12-30T03:33:58.434Z,0.65
2023-12-30T03:36:26.935Z,0.50
2023-12-30T03:38:56.070Z,1.05
2023-12-30T03:41:26.198Z,0.60
2023-12-30T03:43:54.533Z,0.77
2023-12-30T03:46:23.004Z,0.85
2023-12-30T03:48:51.556Z,0.60
2023-12-30T03:51:21.397Z,0.90
2023-12-30T03:53:52.093Z,1.02
2023-12-30T03:56:20.508Z,1.30
2023-12-30T03:58:48.938Z,0.90
2023-12-30T04:01:17.380Z,0.90
2023-12-30T04:03:45.836Z,0.82
2023-12-30T04:06:24.308Z,0.80
2023-12-30T04:08:52.650Z,0.60
2023-12-30T04:11:21.078Z,1.02
2023-12-30T04:13:49.446Z,0.95
2023-12-30T04:16:17.936Z,1.48
2023-12-30T04:18:46.330Z,0.52
2023-12-30T04:21:14.725Z,0.90
2023-12-30T04:23:45.054Z,0.70
2023-12-30T04:26:13.393Z,0.77
2023-12-30T04:28:41.830Z,1.42
2023-12-30T04:31:10.222Z,0.57
2023-12-30T04:33:38.783Z,0.80
2023-12-30T04:36:07.826Z,0.80
2023-12-30T04:38:36.228Z,1.13
2023-12-30T04:41:06.362Z,0.88
2023-12-30T04:43:34.888Z,0.70
2023-12-30T04:46:03.713Z,1.15
2023-12-30T04:48:32.328Z,0.70
2023-12-30T04:51:00.696Z,0.85
2023-12-30T04:53:29.051Z,0.35
2023-12-30T04:55:57.448Z,0.90
2023-12-30T04:58:27.299Z,0.82
2023-12-30T05:00:55.737Z,0.80
2023-12-30T05:03:24.187Z,0.63
2023-12-30T05:05:52.780Z,1.00
2023-12-30T05:08:21.234Z,0.85
2023-12-30T05:10:49.542Z,1.00
2023-12-30T05:13:18.063Z,1.05
2023-12-30T05:15:49.760Z,0.88
2023-12-30T05:18:18.583Z,0.85
2023-12-30T05:20:46.984Z,0.93
2023-12-30T05:23:15.996Z,0.70
2023-12-30T05:25:44.356Z,0.80
2023-12-30T05:28:12.891Z,0.95
2023-12-30T05:30:41.387Z,0.88
2023-12-30T05:33:11.267Z,0.82
2023-12-30T05:35:42.155Z,0.77
2023-12-30T05:38:13.652Z,0.90
2023-12-30T05:40:42.440Z,0.80
2023-12-30T05:43:10.822Z,0.82
2023-12-30T05:45:40.249Z,0.70
2023-12-30T05:48:10.915Z,0.65
2023-12-30T05:50:39.450Z,0.65
2023-12-30T05:53:07.775Z,0.85
2023-12-30T05:55:36.200Z,0.60
2023-12-30T05:58:05.087Z,1.00
2023-12-30T06:00:33.596Z,0.43
2023-12-30T06:03:02.407Z,0.60
2023-12-30T06:05:32.522Z,0.70
2023-12-30T06:08:00.937Z,0.73
2023-12-30T06:10:29.340Z,0.88
2023-12-30T06:12:57.761Z,0.75
2023-12-30T06:15:27.151Z,1.00
2023-12-30T06:17:55.620Z,0.70
2023-12-30T06:20:24.513Z,0.70
2023-12-30T06:22:54.239Z,0.75
2023-12-30T06:25:22.702Z,0.93
2023-12-30T06:27:51.189Z,0.60
2023-12-30T06:30:19.635Z,1.02
2023-12-30T06:32:48.951Z,0.60
2023-12-30T06:35:17.505Z,0.60
2023-12-30T06:37:45.874Z,0.93
2023-12-30T06:40:16.249Z,1.30
2023-12-30T06:42:46.267Z,0.93
2023-12-30T06:45:14.712Z,1.00
2023-12-30T06:47:44.903Z,1.13
2023-12-30T06:50:14.604Z,1.27
2023-12-30T06:52:42.976Z,1.27
2023-12-30T06:55:20.737Z,1.40
2023-12-30T06:57:55.870Z,1.10
2023-12-30T07:00:24.425Z,1.08
2023-12-30T07:02:52.814Z,0.70
2023-12-30T07:05:21.223Z,1.08
2023-12-30T07:07:49.612Z,0.90
2023-12-30T07:10:18.539Z,1.30
2023-12-30T07:12:46.999Z,1.20
2023-12-30T07:15:17.117Z,0.85
2023-12-30T07:17:47.173Z,1.13
2023-12-30T07:20:15.952Z,1.05
2023-12-30T07:22:44.298Z,1.00
2023-12-30T07:25:13.475Z,0.82
2023-12-30T07:27:41.819Z,0.73
2023-12-30T07:30:11.222Z,1.02
2023-12-30T07:32:41.210Z,1.05
2023-12-30T07:35:10.645Z,1.15
2023-12-30T07:37:39.194Z,0.60
2023-12-30T07:40:10.186Z,0.65
2023-12-30T07:42:38.670Z,0.57
2023-12-30T07:45:09.011Z,1.33
2023-12-30T07:47:37.896Z,0.50
2023-12-30T07:50:11.717Z,1.15
2023-12-30T07:52:40.394Z,1.02
2023-12-30T07:55:10.052Z,1.33
2023-12-30T07:57:39.315Z,0.82
2023-12-30T08:00:09.809Z,1.13
2023-12-30T08:02:38.543Z,1.67
2023-12-30T08:05:09.683Z,1.23
2023-12-30T08:07:37.161Z,0.98
2023-12-30T08:10:06.733Z,1.00
2023-12-30T08:12:37.039Z,1.10
2023-12-30T08:15:07.077Z,0.98
2023-12-30T08:17:35.558Z,1.27
2023-12-30T08:20:04.164Z,0.90
2023-12-30T08:22:33.963Z,0.77
2023-12-30T08:25:02.465Z,1.08
2023-12-30T08:27:30.814Z,0.93
2023-12-30T08:29:59.171Z,1.48
2023-12-30T08:32:27.581Z,0.93
2023-12-30T08:34:56.449Z,1.23
2023-12-30T08:37:26.010Z,1.30
2023-12-30T08:39:55.901Z,1.20
2023-12-30T08:42:24.252Z,1.23
2023-12-30T08:44:52.612Z,1.00
2023-12-30T08:47:21.053Z,1.70
2023-12-30T08:49:49.495Z,1.75
2023-12-30T08:52:17.986Z,1.23
2023-12-30T08:54:46.411Z,1.25
2023-12-30T08:57:16.195Z,1.33
2023-12-30T08:59:44.549Z,0.80
2023-12-30T09:02:13.420Z,1.08
2023-12-30T09:04:41.803Z,1.30
2023-12-30T09:07:10.236Z,1.10
2023-12-30T09:09:38.985Z,1.00
2023-12-30T09:12:08.571Z,1.10
2023-12-30T09:14:38.342Z,2.75
2023-12-30T09:17:07.049Z,1.17
2023-12-30T09:19:35.527Z,1.17
2023-12-30T09:22:04.052Z,1.20
2023-12-30T09:24:32.409Z,1.00
2023-12-30T09:27:00.797Z,1.48
2023-12-30T09:29:29.152Z,1.50
2023-12-30T09:31:58.928Z,1.23
2023-12-30T09:34:34.282Z,0.93
2023-12-30T09:37:10.341Z,1.17
2023-12-30T09:39:38.717Z,1.55
2023-12-30T09:42:08.084Z,0.85
2023-12-30T09:44:37.328Z,1.42
2023-12-30T09:47:11.640Z,1.25
2023-12-30T09:49:42.369Z,1.15
2023-12-30T09:52:10.824Z,1.38
2023-12-30T09:54:48.320Z,1.75
2023-12-30T09:57:18.296Z,1.50
2023-12-30T09:59:49.410Z,1.17
2023-12-30T10:02:19.171Z,1.40
2023-12-30T10:04:50.779Z,1.85
2023-12-30T10:07:19.544Z,1.67
2023-12-30T10:09:51.682Z,2.10
2023-12-30T10:12:20.571Z,1.88
2023-12-30T10:14:48.980Z,0.90
2023-12-30T10:17:19.740Z,1.10
2023-12-30T10:19:49.387Z,1.25
2023-12-30T10:22:18.104Z,1.40
2023-12-30T10:24:46.458Z,1.50
2023-12-30T10:27:14.930Z,1.05
2023-12-30T10:29:51.031Z,0.93
2023-12-30T10:32:24.620Z,1.10
2023-12-30T10:34:53.212Z,1.17
2023-12-30T10:37:32.110Z,1.52
2023-12-30T10:40:03.127Z,1.17
2023-12-30T10:42:31.656Z,1.30
2023-12-30T10:45:00.317Z,1.10
2023-12-30T10:47:29.887Z,1.20
2023-12-30T10:50:06.253Z,0.95
2023-12-30T10:52:46.105Z,1.23
2023-12-30T10:55:19.126Z,1.30
2023-12-30T10:57:54.847Z,0.77
2023-12-30T11:00:23.787Z,1.20
2023-12-30T11:02:53.717Z,1.20
2023-12-30T11:05:29.679Z,1.45
2023-12-30T11:07:59.914Z,1.02
2023-12-30T11:10:28.875Z,1.38
2023-12-30T11:12:58.788Z,0.65
2023-12-30T11:15:30.285Z,1.10
2023-12-30T11:17:59.605Z,1.17
2023-12-30T11:20:31.477Z,0.90
2023-12-30T11:23:04.100Z,1.02
2023-12-30T11:25:42.681Z,1.13
2023-12-30T11:28:19.796Z,1.00
2023-12-30T11:30:59.301Z,1.67
2023-12-30T11:33:27.861Z,1.20
2023-12-30T11:35:57.171Z,1.00
2023-12-30T11:38:32.010Z,1.75
2023-12-30T11:41:02.407Z,0.88
2023-12-30T11:43:30.913Z,1.52
2023-12-30T11:46:01.325Z,1.00
2023-12-30T11:48:29.899Z,1.40
2023-12-30T11:50:58.277Z,1.30
2023-12-30T11:53:28.144Z,1.40
2023-12-30T11:55:56.805Z,1.15
2023-12-30T11:58:25.355Z,1.27
2023-12-30T12:00:53.810Z,1.50
2023-12-30T12:03:22.180Z,1.10
2023-12-30T12:05:51.539Z,1.45
2023-12-30T12:08:19.979Z,1.10
2023-12-30T12:10:49.804Z,1.15
2023-12-30T12:13:23.017Z,1.33
2023-12-30T12:15:56.039Z,1.05
2023-12-30T12:18:25.660Z,0.70
2023-12-30T12:20:55.013Z,1.05
2023-12-30T12:23:25.639Z,2.08
2023-12-30T12:25:55.572Z,1.02
2023-12-30T12:28:24.849Z,1.27
2023-12-30T12:30:53.448Z,1.20
2023-12-30T12:33:22.091Z,1.33
2023-12-30T12:35:50.969Z,1.13
2023-12-30T12:38:19.793Z,1.58
2023-12-30T12:40:48.302Z,0.98
2023-12-30T12:43:18.420Z,0.93
2023-12-30T12:45:46.844Z,1.20
2023-12-30T12:48:17.396Z,1.05
2023-12-30T12:50:46.300Z,2.00
2023-12-30T12:53:14.959Z,1.75
2023-12-30T12:55:43.344Z,1.20
2023-12-30T12:58:11.724Z,1.20
2023-12-30T13:00:41.953Z,1.02
2023-12-30T13:03:10.555Z,1.25
2023-12-30T13:05:39.222Z,1.13
2023-12-30T13:08:09.829Z,1.55
2023-12-30T13:10:42.733Z,1.67
2023-12-30T13:13:11.395Z,1.35
2023-12-30T13:15:41.273Z,1.17
2023-12-30T13:18:14.355Z,1.38
2023-12-30T13:20:46.392Z,1.00
2023-12-30T13:23:16.042Z,1.23
2023-12-30T13:25:45.422Z,1.10
2023-12-30T13:28:15.612Z,1.30
2023-12-30T13:30:46.068Z,1.08
2023-12-30T13:33:18.210Z,1.40
2023-12-30T13:35:46.860Z,1.20
2023-12-30T13:38:16.623Z,1.20
2023-12-30T13:40:47.155Z,2.08
2023-12-30T13:43:17.784Z,1.88
2023-12-30T13:45:48.047Z,1.20
2023-12-30T13:48:47.246Z,1.90
2023-12-30T13:51:17.949Z,1.30
2023-12-30T13:53:46.679Z,1.15
2023-12-30T13:56:21.405Z,1.23
2023-12-30T13:58:51.737Z,1.65
2023-12-30T14:01:23.888Z,1.10
2023-12-30T14:03:53.850Z,1.83
2023-12-30T14:06:29.836Z,1.67
2023-12-30T14:08:59.714Z,1.40
2023-12-30T14:11:34.402Z,2.10
2023-12-30T14:14:05.650Z,3.42
2023-12-30T14:16:35.882Z,1.90
2023-12-30T14:19:04.433Z,1.50
2023-12-30T14:21:35.142Z,2.13
2023-12-30T14:24:04.222Z,1.90
2023-12-30T14:26:32.745Z,2.08
2023-12-30T14:29:01.401Z,1.25
2023-12-30T14:31:29.855Z,1.33
2023-12-30T14:33:59.987Z,1.27
2023-12-30T14:36:28.556Z,1.60
2023-12-30T14:38:57.444Z,2.30
2023-12-30T14:41:25.796Z,3.33
2023-12-30T14:43:54.290Z,1.88
2023-12-30T14:46:22.917Z,1.33
2023-12-30T14:48:51.638Z,2.47
2023-12-30T14:51:21.470Z,3.00
2023-12-30T14:53:50.019Z,1.33
2023-12-30T14:56:19.905Z,2.35
2023-12-30T14:58:49.008Z,2.28
2023-12-30T15:01:17.933Z,1.88
2023-12-30T15:03:46.404Z,1.38
2023-12-30T15:06:15.217Z,1.10
2023-12-30T15:08:44.977Z,2.00
2023-12-30T15:11:13.358Z,1.77
2023-12-30T15:13:41.760Z,2.63
2023-12-30T15:16:10.194Z,1.65
2023-12-30T15:18:38.676Z,3.47
2023-12-30T15:21:07.540Z,2.58
2023-12-30T15:23:35.996Z,1.77
2023-12-30T15:26:05.976Z,1.40
2023-12-30T15:28:34.388Z,1.80
2023-12-30T15:31:04.117Z,3.20
2023-12-30T15:33:33.005Z,2.00
2023-12-30T15:36:04.053Z,2.70
2023-12-30T15:38:33.265Z,2.40
2023-12-30T15:41:01.910Z,2.60
2023-12-30T15:43:32.914Z,2.70
2023-12-30T15:46:01.604Z,2.70
2023-12-30T15:48:30.216Z,2.42
2023-12-30T15:50:58.815Z,2.20
2023-12-30T15:53:27.230Z,2.38
2023-12-30T15:55:55.952Z,1.70
2023-12-30T15:58:24.343Z,3.05
2023-12-30T16:00:54.199Z,2.22
2023-12-30T16:03:22.622Z,3.42
2023-12-30T16:05:51.128Z,3.28
2023-12-30T16:08:19.549Z,2.65
2023-12-30T16:10:47.963Z,2.50
2023-12-30T16:13:16.387Z,2.60
2023-12-30T16:15:46.213Z,2.30
2023-12-30T16:18:16.143Z,1.80
2023-12-30T16:20:44.563Z,2.42
2023-12-30T16:23:15.272Z,3.25
2023-12-30T16:25:46.139Z,2.08
2023-12-30T16:28:17.482Z,1.85
2023-12-30T16:30:49.130Z,1.45
2023-12-30T16:33:23.096Z,1.95
2023-12-30T16:35:53.984Z,2.60
2023-12-30T16:38:24.363Z,3.25
2023-12-30T16:40:55.231Z,2.90
2023-12-30T16:43:25.665Z,3.05
2023-12-30T16:45:55.312Z,2.47
2023-12-30T16:48:25.273Z,3.00
2023-12-30T16:50:53.885Z,2.38
2023-12-30T16:53:22.361Z,2.33
2023-12-30T16:55:51.936Z,2.42
2023-12-30T16:58:22.409Z,2.22
2023-12-30T17:03:25.702Z,2.45
2023-12-30T17:05:55.218Z,2.47
2023-12-30T17:08:24.247Z,2.67
2023-12-30T17:10:53.557Z,2.75
2023-12-30T17:13:31.180Z,3.38
2023-12-30T17:16:03.776Z,4.38
2023-12-30T17:18:33.689Z,3.97
2023-12-30T17:21:03.645Z,4.53
2023-12-30T17:23:31.999Z,4.15
2023-12-30T17:26:02.439Z,4.80
2023-12-30T17:28:30.894Z,3.95
2023-12-30T17:30:59.427Z,4.53
2023-12-30T17:33:27.887Z,4.75
2023-12-30T17:35:57.802Z,6.40
2023-12-30T17:38:26.340Z,5.55
2023-12-30T17:40:54.935Z,7.70
2023-12-30T17:43:23.359Z,10.02
2023-12-30T17:45:51.809Z,8.13
2023-12-30T17:48:20.444Z,5.50
2023-12-30T17:50:48.902Z,6.82
2023-12-30T17:53:18.647Z,5.25
2023-12-30T17:55:47.528Z,5.55
2023-12-30T17:58:17.287Z,4.47
2023-12-30T18:00:46.260Z,4.47
2023-12-30T18:03:15.281Z,4.10
2023-12-30T18:05:44.561Z,4.30
2023-12-30T18:08:14.156Z,4.20
2023-12-30T18:10:45.083Z,5.60
2023-12-30T18:13:14.479Z,5.88
2023-12-30T18:15:43.917Z,4.90
2023-12-30T18:18:14.983Z,6.80
2023-12-30T18:20:45.364Z,10.10
2023-12-30T18:23:15.602Z,8.32
2023-12-30T18:25:45.929Z,7.03
2023-12-30T18:28:15.204Z,5.88
2023-12-30T18:30:46.023Z,5.75
2023-12-30T18:33:15.897Z,3.70
2023-12-30T18:35:45.026Z,3.85
2023-12-30T18:38:13.798Z,4.03
2023-12-30T18:40:46.095Z,5.25
2023-12-30T18:43:15.540Z,7.90
2023-12-30T18:45:47.968Z,5.53
2023-12-30T18:48:18.454Z,4.15
2023-12-30T18:50:49.281Z,4.38
2023-12-30T18:53:19.307Z,3.78
2023-12-30T18:55:52.204Z,2.97
2023-12-30T18:58:22.622Z,2.92
2023-12-30T19:00:52.928Z,3.15
2023-12-30T19:03:22.755Z,3.75
2023-12-30T19:05:52.820Z,3.25
2023-12-30T19:08:22.690Z,3.35
2023-12-30T19:10:54.439Z,4.25
2023-12-30T19:13:24.077Z,5.60
2023-12-30T19:15:53.759Z,5.20
2023-12-30T19:18:22.872Z,8.63
2023-12-30T19:20:53.778Z,7.43
2023-12-30T19:23:23.484Z,6.40
2023-12-30T19:25:54.345Z,8.95
2023-12-30T19:28:24.208Z,6.07
2023-12-30T19:30:55.250Z,7.00
2023-12-30T19:33:23.993Z,6.53
2023-12-30T19:35:53.717Z,6.70
2023-12-30T19:38:22.546Z,7.10
2023-12-30T19:40:54.486Z,7.50
2023-12-30T19:43:24.278Z,9.18
2023-12-30T19:45:54.777Z,6.78
2023-12-30T19:48:26.242Z,7.22
2023-12-30T19:50:55.660Z,7.18
2023-12-30T19:53:24.044Z,6.70
2023-12-30T19:55:55.585Z,7.10
2023-12-30T19:58:25.868Z,7.47
2023-12-30T20:00:54.973Z,7.18
2023-12-30T20:03:26.443Z,7.95
2023-12-30T20:05:56.494Z,7.20
2023-12-30T20:08:26.147Z,8.07
2023-12-30T20:10:56.442Z,7.97
2023-12-30T20:13:26.481Z,8.98
2023-12-30T20:15:55.133Z,10.18
2023-12-30T20:18:24.802Z,7.80
2023-12-30T20:20:54.818Z,7.20
2023-12-30T20:23:25.301Z,8.50
2023-12-30T20:25:57.367Z,6.80
2023-12-30T20:28:28.124Z,7.75
2023-12-30T20:30:58.623Z,8.13
2023-12-30T20:33:29.325Z,6.75
2023-12-30T20:36:00.183Z,6.60
2023-12-30T20:38:30.734Z,7.43
2023-12-30T20:41:03.453Z,8.52
2023-12-30T20:43:34.167Z,8.10
2023-12-30T20:46:06.063Z,9.52
2023-12-30T20:48:37.945Z,8.18
2023-12-30T20:51:10.754Z,5.85
2023-12-30T20:53:43.945Z,9.27
2023-12-30T20:56:16.001Z,6.60
2023-12-30T20:58:46.684Z,7.10
2023-12-30T21:01:15.139Z,8.98
2023-12-30T21:03:44.173Z,8.45
2023-12-30T21:06:12.713Z,7.00
2023-12-30T21:08:43.506Z,9.10
2023-12-30T21:11:13.301Z,8.77
2023-12-30T21:13:42.497Z,9.40
2023-12-30T21:16:10.938Z,10.10
2023-12-30T21:18:39.352Z,10.52
2023-12-30T21:21:07.741Z,9.40
2023-12-30T21:23:36.084Z,10.25
2023-12-30T21:26:05.591Z,8.75
2023-12-30T21:28:36.409Z,9.20
2023-12-30T21:31:06.489Z,9.30
2023-12-30T21:33:34.990Z,9.02
2023-12-30T21:36:06.896Z,9.13
2023-12-30T21:38:36.683Z,9.75
2023-12-30T21:41:06.474Z,9.55
2023-12-30T21:43:36.297Z,9.07
2023-12-30T21:46:05.300Z,10.88
2023-12-30T21:48:34.352Z,10.20
2023-12-30T21:51:02.731Z,10.65
2023-12-30T21:53:31.086Z,11.85
2023-12-30T21:55:59.412Z,9.50
2023-12-30T21:58:27.914Z,9.60
2023-12-30T22:00:57.766Z,8.98
2023-12-30T22:03:26.291Z,9.95
2023-12-30T22:05:54.713Z,9.52
2023-12-30T22:08:23.149Z,10.40
2023-12-30T22:10:50.714Z,9.98
2023-12-30T22:13:19.120Z,12.10
2023-12-30T22:15:47.542Z,11.80
2023-12-30T22:18:17.385Z,11.48
2023-12-30T22:20:45.943Z,10.30
2023-12-30T22:23:14.368Z,10.48
2023-12-30T22:25:44.083Z,12.35
2023-12-30T22:28:12.642Z,11.93
2023-12-30T22:30:41.541Z,10.50
2023-12-30T22:33:10.411Z,12.02
2023-12-30T22:35:40.364Z,13.70
2023-12-30T22:38:08.880Z,11.15
2023-12-30T22:40:37.342Z,12.68
2023-12-30T22:43:06.465Z,11.23
2023-12-30T22:45:37.835Z,11.77
2023-12-30T22:48:07.864Z,11.63
2023-12-30T22:50:36.264Z,12.93
2023-12-30T22:53:06.631Z,9.93
2023-12-30T22:55:35.611Z,11.52
2023-12-30T22:58:04.119Z,12.43
2023-12-30T23:00:35.269Z,11.43
2023-12-30T23:03:04.404Z,12.57
2023-12-30T23:05:32.986Z,11.90
2023-12-30T23:08:00.638Z,11.93
2023-12-30T23:10:30.828Z,11.05
2023-12-30T23:13:01.526Z,12.50
2023-12-30T23:15:31.339Z,11.90
2023-12-30T23:18:00.375Z,11.05
2023-12-30T23:20:28.937Z,13.13
2023-12-30T23:22:57.310Z,11.70
2023-12-30T23:25:25.882Z,11.20
2023-12-30T23:27:55.657Z,12.10
2023-12-30T23:30:24.097Z,10.52
2023-12-30T23:32:52.482Z,10.20
2023-12-30T23:35:20.992Z,11.27
2023-12-30T23:37:49.492Z,11.13
2023-12-30T23:40:18.157Z,10.98
2023-12-30T23:42:46.541Z,12.38
2023-12-30T23:45:17.558Z,11.27
2023-12-30T23:47:46.012Z,11.57
2023-12-30T23:50:15.209Z,11.68
2023-12-30T23:52:43.690Z,11.73
2023-12-30T23:55:12.118Z,12.20
2023-12-30T23:57:41.337Z,14.38
